Huvudsida
METAR-TAF:

METAR-TAF

Flygplatser :

Kittilä flygplats

Kittilä, Finland

latitud: 67-42N, longitud: 024-51E, höjd: 196 m

Aktuellt väderrapport

Denna rapport gjordes för 39 minuter sedan, klockan 09:20 UTC
Vind 10 kt från syd
Temperatur -3°C
Fuktighet 80%
Tryck 1003 hPa
Sikt 10 km eller mer
Få moln på en höjd av 1100 ft
Brutna moln på en höjd av 5600 ft

METAR: EFKT 200920Z 19010KT 9999 FEW011 BKN056 M03/M06 Q1003

Tid: 11:59 (09:59 UTC)

Väderprognos

Denna rapport gjordes för 1 timme och 37 minuter sedan, klockan 08:22 UTC
Prognos gäller från 20 kl. 09 UTC till 20 kl. 18 UTC
Vind 11 kt från syd
Sikt 10 km eller mer
Få moln på en höjd av 900 ft
Blir
från 20 kl. 11 UTC till 20 kl. 13 UTC
Sikt: 2500 m
Brutna moln på en höjd av 1400 ft
lätt snö
Temporärt
från 20 kl. 16 UTC till 20 kl. 18 UTC
Brutna moln på en höjd av 800 ft

TAF: EFKT 200822Z 2009/2018 18011KT 9999 FEW009 BECMG 2011/2013 2500 -SN BKN014 TEMPO 2016/2018 BKN008

Aktuella väderrapporter och prognoser från 4000 flygplatser (METAR- och TAF-rapporter).

De tillgängliga stationerna syns som gula och röda prickar på kartan.

För musen över prickarna för att se namnen på stationerna.

Klicka sedan för att få väderrapporter och prognoser.

För att ändra kartan: Klicka på de gröna knapparna med ett svart kors på för att zooma in; den gröna knappen med ett streck på för att zooma ut; eller på de gröna pilarna för angränsande kartor.


METAR-TAF: